Time;durP1;ratioP1;P1;durP2;ratioP2;P2;SDS_P1;SDS_P2;PMS_P1;PMS_P2;Temp;Humidity;BMP_temperature;BMP_pressure;BME280_temperature;BME280_humidity;BME280_pressure;Samples;Min_cycle;Max_cycle;Signal;HPM_P1;HPM_P2
2023/07/18 00:00:14;;;;;;;7.22;5.22;;;;;;;;;;5050489;28;20013;-66
2023/07/18 00:02:40;;;;;;;9.00;5.05;;;;;;;;;;5049306;28;20049;-69
2023/07/18 00:05:06;;;;;;;7.30;5.00;;;;;;;;;;5067226;28;20027;-70
2023/07/18 00:07:31;;;;;;;18.80;5.85;;;;;;;;;;5069481;28;20028;-70
2023/07/18 00:09:56;;;;;;;12.37;4.33;;;;;;;;;;5070869;28;20089;-70
2023/07/18 00:12:21;;;;;;;11.00;6.10;;;;;;;;;;5068678;28;20514;-70
2023/07/18 00:14:46;;;;;;;12.60;6.60;;;;;;;;;;5060417;28;20029;-70
2023/07/18 00:17:12;;;;;;;10.32;5.53;;;;;;;;;;5058606;28;20041;-70
2023/07/18 00:19:37;;;;;;;9.67;6.47;;;;;;;;;;5070397;28;20047;-69
2023/07/18 00:22:02;;;;;;;12.43;6.65;;;;;;;;;;5056508;28;20038;-69
2023/07/18 00:24:28;;;;;;;12.88;4.75;;;;;;;;;;5047296;28;20419;-70
2023/07/18 00:26:54;;;;;;;7.80;4.47;;;;;;;;;;5059653;28;20093;-69
2023/07/18 00:29:20;;;;;;;13.27;6.78;;;;;;;;;;5074748;28;20056;-69
2023/07/18 00:31:45;;;;;;;7.28;5.03;;;;;;;;;;5073342;28;20075;-69
2023/07/18 00:34:11;;;;;;;8.75;5.43;;;;;;;;;;5073633;28;20067;-70
2023/07/18 00:36:36;;;;;;;8.18;5.25;;;;;;;;;;5072925;28;20044;-69
2023/07/18 00:39:03;;;;;;;7.00;5.37;;;;;;;;;;5072570;28;20052;-69
2023/07/18 00:41:28;;;;;;;12.98;5.43;;;;;;;;;;5072973;28;20071;-69
2023/07/18 00:43:53;;;;;;;6.63;5.07;;;;;;;;;;5067202;28;20052;-69
2023/07/18 00:46:18;;;;;;;11.60;6.43;;;;;;;;;;5052851;28;20017;-69
2023/07/18 00:48:44;;;;;;;10.07;6.37;;;;;;;;;;5054268;28;20416;-69
2023/07/18 00:51:10;;;;;;;10.45;6.38;;;;;;;;;;5052461;28;20465;-69
2023/07/18 00:53:37;;;;;;;9.48;5.18;;;;;;;;;;5057805;28;20475;-69
2023/07/18 00:56:02;;;;;;;11.63;6.50;;;;;;;;;;5071180;28;20371;-68
2023/07/18 00:58:28;;;;;;;9.63;7.77;;;;;;;;;;5071492;28;20024;-69
2023/07/18 01:00:54;;;;;;;9.07;6.30;;;;;;;;;;5054323;28;20435;-69
2023/07/18 01:03:19;;;;;;;11.30;5.53;;;;;;;;;;5053864;28;20035;-69
2023/07/18 01:05:45;;;;;;;11.93;7.40;;;;;;;;;;5073669;28;20120;-68
2023/07/18 01:08:10;;;;;;;12.93;7.30;;;;;;;;;;5071916;28;20478;-68
2023/07/18 01:10:37;;;;;;;8.50;6.40;;;;;;;;;;5074264;28;20017;-68
2023/07/18 01:13:02;;;;;;;37.55;6.78;;;;;;;;;;5059582;28;20039;-68
2023/07/18 01:15:30;;;;;;;15.50;5.37;;;;;;;;;;5054181;28;20107;-69
2023/07/18 01:17:55;;;;;;;12.82;8.35;;;;;;;;;;5052348;28;20094;-68
2023/07/18 01:20:27;;;;;;;13.95;6.00;;;;;;;;;;5056076;28;20025;-68
2023/07/18 01:22:53;;;;;;;20.05;6.95;;;;;;;;;;5052367;28;20048;-68
2023/07/18 01:25:19;;;;;;;9.75;6.50;;;;;;;;;;5071223;28;20017;-68
2023/07/18 01:27:44;;;;;;;13.88;5.97;;;;;;;;;;5071858;28;20647;-68
2023/07/18 01:30:10;;;;;;;8.35;5.47;;;;;;;;;;5071697;28;20120;-69
2023/07/18 01:32:35;;;;;;;10.35;5.40;;;;;;;;;;5061696;28;20096;-69
2023/07/18 01:35:02;;;;;;;15.32;7.30;;;;;;;;;;5052650;28;20021;-68
2023/07/18 01:37:27;;;;;;;12.45;7.18;;;;;;;;;;5051776;28;20102;-68
2023/07/18 01:39:52;;;;;;;11.10;6.32;;;;;;;;;;5053315;28;20025;-68
2023/07/18 01:42:17;;;;;;;9.20;6.35;;;;;;;;;;5051309;28;20033;-68
2023/07/18 01:44:43;;;;;;;12.70;5.57;;;;;;;;;;5065509;28;20418;-68
2023/07/18 01:47:09;;;;;;;10.55;6.88;;;;;;;;;;5071756;28;20113;-68
2023/07/18 01:49:35;;;;;;;10.87;7.87;;;;;;;;;;5073008;28;20491;-68
2023/07/18 01:52:00;;;;;;;9.57;6.47;;;;;;;;;;5063840;28;20044;-67
2023/07/18 01:54:27;;;;;;;9.27;6.00;;;;;;;;;;5053164;28;20092;-65
2023/07/18 01:56:52;;;;;;;11.48;5.80;;;;;;;;;;5051397;28;20074;-65
2023/07/18 01:59:17;;;;;;;10.97;5.07;;;;;;;;;;5052769;28;20476;-64
2023/07/18 02:01:42;;;;;;;10.30;6.97;;;;;;;;;;5051727;28;20051;-65
2023/07/18 02:04:07;;;;;;;14.90;6.60;;;;;;;;;;5053153;28;20021;-66
2023/07/18 02:06:32;;;;;;;12.35;6.43;;;;;;;;;;5051550;28;20452;-65
2023/07/18 02:08:58;;;;;;;5.83;5.10;;;;;;;;;;5052639;28;20024;-66
2023/07/18 02:11:23;;;;;;;6.72;6.03;;;;;;;;;;5050897;28;20456;-65
2023/07/18 02:13:48;;;;;;;11.00;5.10;;;;;;;;;;5056972;28;20067;-66
2023/07/18 02:16:13;;;;;;;11.25;6.55;;;;;;;;;;5071187;28;20482;-68
2023/07/18 02:18:38;;;;;;;9.40;6.07;;;;;;;;;;5072733;28;20086;-67
2023/07/18 02:21:04;;;;;;;10.93;5.83;;;;;;;;;;5070704;28;20045;-67
2023/07/18 02:23:29;;;;;;;14.13;7.63;;;;;;;;;;5060771;28;20043;-67
2023/07/18 02:25:54;;;;;;;10.05;5.13;;;;;;;;;;5071537;28;20020;-68
2023/07/18 02:28:19;;;;;;;14.48;5.43;;;;;;;;;;5071038;28;20036;-68
2023/07/18 02:30:44;;;;;;;10.70;7.23;;;;;;;;;;5072300;28;20545;-67
2023/07/18 02:33:10;;;;;;;9.40;5.63;;;;;;;;;;5051624;28;20044;-67
2023/07/18 02:35:36;;;;;;;26.55;8.68;;;;;;;;;;5053491;28;20471;-68
2023/07/18 02:38:01;;;;;;;13.38;5.88;;;;;;;;;;5050864;28;20116;-67
2023/07/18 02:40:26;;;;;;;8.63;5.90;;;;;;;;;;5051920;28;20029;-68
2023/07/18 02:42:52;;;;;;;11.90;8.48;;;;;;;;;;5050937;28;20071;-67
2023/07/18 02:45:17;;;;;;;15.40;6.93;;;;;;;;;;5067568;28;20032;-67
2023/07/18 02:47:42;;;;;;;10.00;6.17;;;;;;;;;;5070016;28;20032;-67
2023/07/18 02:50:08;;;;;;;9.02;5.75;;;;;;;;;;5071537;28;20427;-68
2023/07/18 02:52:33;;;;;;;8.43;6.57;;;;;;;;;;5070055;28;20029;-68
2023/07/18 02:54:59;;;;;;;12.35;6.95;;;;;;;;;;5057834;28;20108;-68
2023/07/18 02:57:24;;;;;;;14.00;6.13;;;;;;;;;;5050640;28;20037;-67
2023/07/18 02:59:49;;;;;;;9.80;5.35;;;;;;;;;;5065420;28;20107;-68
2023/07/18 03:02:15;;;;;;;6.80;5.40;;;;;;;;;;5069926;28;20037;-68
2023/07/18 03:04:42;;;;;;;12.25;6.30;;;;;;;;;;5072009;28;20051;-68
2023/07/18 03:07:07;;;;;;;8.45;4.85;;;;;;;;;;5070188;28;20029;-67
2023/07/18 03:09:34;;;;;;;8.77;6.03;;;;;;;;;;5060609;28;20085;-68
2023/07/18 03:11:59;;;;;;;9.32;6.93;;;;;;;;;;5049593;28;20443;-67
2023/07/18 03:14:25;;;;;;;13.90;6.87;;;;;;;;;;5050151;28;20031;-68
2023/07/18 03:16:50;;;;;;;7.37;6.57;;;;;;;;;;5049934;28;20037;-67
2023/07/18 03:19:15;;;;;;;8.32;5.35;;;;;;;;;;5059528;28;20031;-67
2023/07/18 03:21:40;;;;;;;11.73;7.15;;;;;;;;;;5070284;28;20033;-67
2023/07/18 03:24:07;;;;;;;7.85;6.78;;;;;;;;;;5070778;28;20101;-68
2023/07/18 03:26:33;;;;;;;7.43;5.38;;;;;;;;;;5069885;28;20032;-67
2023/07/18 03:28:58;;;;;;;10.05;6.45;;;;;;;;;;5060319;28;20029;-66
2023/07/18 03:31:23;;;;;;;14.32;7.50;;;;;;;;;;5050151;28;20155;-67
2023/07/18 03:33:48;;;;;;;12.57;5.95;;;;;;;;;;5050870;28;20074;-67
2023/07/18 03:36:13;;;;;;;10.45;6.40;;;;;;;;;;5061224;28;20055;-66
2023/07/18 03:38:38;;;;;;;12.37;5.13;;;;;;;;;;5067995;28;20052;-67
2023/07/18 03:41:04;;;;;;;11.43;6.23;;;;;;;;;;5049116;28;20435;-66
2023/07/18 03:43:29;;;;;;;6.25;5.43;;;;;;;;;;5051064;28;20415;-67
2023/07/18 03:45:54;;;;;;;14.73;7.35;;;;;;;;;;5051136;28;20023;-66
2023/07/18 03:48:19;;;;;;;9.87;5.97;;;;;;;;;;5049136;28;20396;-68
2023/07/18 03:50:45;;;;;;;11.40;7.03;;;;;;;;;;5030928;28;20772;-68
2023/07/18 03:53:10;;;;;;;8.27;7.13;;;;;;;;;;5029252;28;20448;-67
2023/07/18 03:55:35;;;;;;;11.57;7.10;;;;;;;;;;5049439;28;20024;-67
2023/07/18 03:58:01;;;;;;;12.98;5.82;;;;;;;;;;5066348;28;20040;-67
2023/07/18 04:00:26;;;;;;;7.55;5.30;;;;;;;;;;5052493;28;20029;-67
2023/07/18 04:02:51;;;;;;;10.90;6.43;;;;;;;;;;5064659;28;20059;-67
2023/07/18 04:05:17;;;;;;;13.30;6.90;;;;;;;;;;5070870;28;20031;-68
2023/07/18 04:07:43;;;;;;;12.65;9.18;;;;;;;;;;5069531;28;20029;-66
2023/07/18 04:10:11;;;;;;;15.10;7.65;;;;;;;;;;5068880;28;20028;-67
2023/07/18 04:12:36;;;;;;;13.95;7.75;;;;;;;;;;5067985;28;20043;-66
2023/07/18 04:15:01;;;;;;;17.20;9.10;;;;;;;;;;5070281;28;20025;-66
2023/07/18 04:17:27;;;;;;;14.43;8.30;;;;;;;;;;5065170;28;20049;-66
2023/07/18 04:19:56;;;;;;;15.40;7.93;;;;;;;;;;5052438;28;20028;-66
2023/07/18 04:22:21;;;;;;;17.38;9.48;;;;;;;;;;5054261;28;20059;-67
2023/07/18 04:24:48;;;;;;;12.07;8.37;;;;;;;;;;5050068;28;20096;-68
2023/07/18 04:27:13;;;;;;;16.40;8.73;;;;;;;;;;5059689;28;20028;-68
2023/07/18 04:29:38;;;;;;;13.63;9.67;;;;;;;;;;5069957;28;20502;-68
2023/07/18 04:32:03;;;;;;;14.45;8.43;;;;;;;;;;5068306;28;20123;-68
2023/07/18 04:34:28;;;;;;;17.40;9.18;;;;;;;;;;5070632;28;20028;-68
2023/07/18 04:36:53;;;;;;;15.77;9.18;;;;;;;;;;5069168;28;20052;-68
2023/07/18 04:39:19;;;;;;;15.75;9.05;;;;;;;;;;5068496;28;20150;-68
2023/07/18 04:41:44;;;;;;;15.73;8.70;;;;;;;;;;5068288;28;20040;-68
2023/07/18 04:44:09;;;;;;;15.80;10.37;;;;;;;;;;5069899;28;20454;-68
2023/07/18 04:46:34;;;;;;;16.70;8.43;;;;;;;;;;5062623;28;20480;-68
2023/07/18 04:48:59;;;;;;;14.55;9.32;;;;;;;;;;5043235;28;20013;-68
2023/07/18 04:51:25;;;;;;;15.57;9.43;;;;;;;;;;5048877;28;20037;-69
2023/07/18 04:53:50;;;;;;;13.77;9.03;;;;;;;;;;5049668;28;20028;-68
2023/07/18 04:56:15;;;;;;;15.63;9.57;;;;;;;;;;5048876;28;20426;-68
2023/07/18 04:58:40;;;;;;;13.90;10.63;;;;;;;;;;5046627;28;20040;-69
2023/07/18 05:01:06;;;;;;;22.65;10.68;;;;;;;;;;5047191;28;20387;-68
2023/07/18 05:03:31;;;;;;;11.40;9.45;;;;;;;;;;5057287;28;20083;-69
2023/07/18 05:05:57;;;;;;;13.00;9.48;;;;;;;;;;5058615;28;20032;-69
2023/07/18 05:08:22;;;;;;;15.83;10.40;;;;;;;;;;5055339;28;20060;-69
2023/07/18 05:10:47;;;;;;;14.15;10.07;;;;;;;;;;5057960;28;20450;-69
2023/07/18 05:13:13;;;;;;;23.17;11.98;;;;;;;;;;5059470;28;20060;-69
2023/07/18 05:15:40;;;;;;;12.98;10.38;;;;;;;;;;5061711;28;20028;-68
2023/07/18 05:18:05;;;;;;;16.95;9.48;;;;;;;;;;5058927;28;20028;-69
2023/07/18 05:20:30;;;;;;;18.33;11.38;;;;;;;;;;5064359;28;20028;-68
2023/07/18 05:22:56;;;;;;;20.35;11.07;;;;;;;;;;5062395;28;20527;-68
2023/07/18 05:25:21;;;;;;;16.70;11.37;;;;;;;;;;5063520;28;20025;-69
2023/07/18 05:27:46;;;;;;;18.95;10.55;;;;;;;;;;5062261;28;20028;-69
2023/07/18 05:30:13;;;;;;;22.85;10.05;;;;;;;;;;5062423;28;20479;-68
2023/07/18 05:32:38;;;;;;;14.38;10.43;;;;;;;;;;5051967;28;20049;-68
2023/07/18 05:35:03;;;;;;;19.33;9.37;;;;;;;;;;5052993;28;20047;-68
2023/07/18 05:37:30;;;;;;;16.70;9.23;;;;;;;;;;5051933;28;20517;-68
2023/07/18 05:39:55;;;;;;;14.15;9.63;;;;;;;;;;5053791;28;20025;-68
2023/07/18 05:42:21;;;;;;;22.90;10.82;;;;;;;;;;5050816;28;20119;-68
2023/07/18 05:44:46;;;;;;;17.48;10.50;;;;;;;;;;5053200;28;20021;-68
2023/07/18 05:47:12;;;;;;;16.80;11.27;;;;;;;;;;5051632;28;20123;-68
2023/07/18 05:49:37;;;;;;;14.27;11.67;;;;;;;;;;5053318;28;20013;-69
2023/07/18 05:52:02;;;;;;;17.13;10.20;;;;;;;;;;5051620;28;20519;-68
2023/07/18 05:54:30;;;;;;;16.05;10.38;;;;;;;;;;5052763;28;20025;-68
2023/07/18 05:56:55;;;;;;;12.93;10.40;;;;;;;;;;5051734;28;20029;-68
2023/07/18 05:59:20;;;;;;;18.50;10.60;;;;;;;;;;5053390;28;20032;-68
2023/07/18 06:01:46;;;;;;;13.98;9.93;;;;;;;;;;5065883;28;20120;-68
2023/07/18 06:04:13;;;;;;;13.50;8.25;;;;;;;;;;5072764;28;20372;-68
2023/07/18 06:06:38;;;;;;;22.05;10.95;;;;;;;;;;5064454;28;20043;-68
2023/07/18 06:09:04;;;;;;;12.57;11.13;;;;;;;;;;5072110;28;20017;-68
2023/07/18 06:11:29;;;;;;;13.50;9.20;;;;;;;;;;5071243;28;20028;-68
2023/07/18 06:13:54;;;;;;;13.63;9.45;;;;;;;;;;5072432;28;20414;-69
2023/07/18 06:16:19;;;;;;;17.13;9.20;;;;;;;;;;5070417;28;20033;-68
2023/07/18 06:18:44;;;;;;;13.18;8.32;;;;;;;;;;5072435;28;20103;-68
2023/07/18 06:21:10;;;;;;;16.48;10.05;;;;;;;;;;5071106;28;20025;-68
2023/07/18 06:23:35;;;;;;;11.13;9.33;;;;;;;;;;5071263;28;20390;-68
2023/07/18 06:26:00;;;;;;;10.73;8.88;;;;;;;;;;5070404;28;20944;-68
2023/07/18 06:28:25;;;;;;;14.00;7.80;;;;;;;;;;5070914;28;20069;-68
2023/07/18 06:30:53;;;;;;;12.50;8.40;;;;;;;;;;5072029;28;20031;-70
2023/07/18 06:33:19;;;;;;;14.00;7.22;;;;;;;;;;5070527;28;20447;-69
2023/07/18 06:35:51;;;;;;;12.30;8.13;;;;;;;;;;5072108;28;20049;-68
2023/07/18 06:38:16;;;;;;;13.40;7.10;;;;;;;;;;5070267;28;20044;-68
2023/07/18 06:40:44;;;;;;;18.20;8.02;;;;;;;;;;5072242;28;20383;-68
2023/07/18 06:43:09;;;;;;;9.25;6.75;;;;;;;;;;5070231;28;20036;-68
2023/07/18 06:45:34;;;;;;;9.60;7.05;;;;;;;;;;5071829;28;20024;-68
2023/07/18 06:48:00;;;;;;;10.10;6.53;;;;;;;;;;5070338;28;20062;-68
2023/07/18 06:50:25;;;;;;;9.98;7.45;;;;;;;;;;5072539;28;20016;-68
2023/07/18 06:52:51;;;;;;;10.65;7.45;;;;;;;;;;5070154;28;20075;-69
2023/07/18 06:55:16;;;;;;;10.63;6.60;;;;;;;;;;5071996;28;20016;-68
2023/07/18 06:57:41;;;;;;;8.33;5.90;;;;;;;;;;5070629;28;20384;-68
2023/07/18 07:00:07;;;;;;;7.90;5.27;;;;;;;;;;5071411;28;20927;-68
2023/07/18 07:02:32;;;;;;;9.15;5.72;;;;;;;;;;5070508;28;20043;-68
2023/07/18 07:04:57;;;;;;;8.23;6.60;;;;;;;;;;5071927;28;20025;-69
2023/07/18 07:07:22;;;;;;;29.33;6.80;;;;;;;;;;5068720;28;20491;-68
2023/07/18 07:09:47;;;;;;;13.77;7.37;;;;;;;;;;5071757;28;20411;-68
2023/07/18 07:12:14;;;;;;;12.07;6.65;;;;;;;;;;5069958;28;20028;-68
2023/07/18 07:14:39;;;;;;;20.50;7.15;;;;;;;;;;5071254;28;20020;-68
2023/07/18 07:17:05;;;;;;;12.05;7.50;;;;;;;;;;5070013;28;20166;-68
2023/07/18 07:19:30;;;;;;;15.85;8.38;;;;;;;;;;5071619;28;20024;-69
2023/07/18 07:21:55;;;;;;;9.25;6.50;;;;;;;;;;5069569;28;20040;-69
2023/07/18 07:24:20;;;;;;;13.53;7.33;;;;;;;;;;5071442;28;20016;-68
2023/07/18 07:26:45;;;;;;;10.47;7.50;;;;;;;;;;5070042;28;20879;-68
2023/07/18 07:29:12;;;;;;;9.40;6.10;;;;;;;;;;5070961;28;20024;-69
2023/07/18 07:31:38;;;;;;;14.20;6.78;;;;;;;;;;5069703;28;20066;-68
2023/07/18 07:34:03;;;;;;;13.10;7.60;;;;;;;;;;5070835;28;20024;-68
2023/07/18 07:36:28;;;;;;;11.32;7.65;;;;;;;;;;5069390;28;20499;-68
2023/07/18 07:38:53;;;;;;;14.33;7.47;;;;;;;;;;5071531;28;20032;-72
2023/07/18 07:41:18;;;;;;;6.60;4.33;;;;;;;;;;5069386;28;20435;-69
2023/07/18 07:43:44;;;;;;;12.13;4.87;;;;;;;;;;5070910;28;20481;-69
2023/07/18 07:46:09;;;;;;;14.13;4.10;;;;;;;;;;5069416;28;20499;-68
2023/07/18 07:48:34;;;;;;;8.20;5.03;;;;;;;;;;5063418;28;20016;-69
2023/07/18 07:51:03;;;;;;;12.05;4.50;;;;;;;;;;5045797;28;20352;-68
2023/07/18 07:53:28;;;;;;;8.32;5.32;;;;;;;;;;5070494;28;20024;-68
2023/07/18 07:55:53;;;;;;;11.77;4.78;;;;;;;;;;5069896;28;20468;-69
2023/07/18 07:58:18;;;;;;;10.57;6.30;;;;;;;;;;5048802;28;20086;-69
2023/07/18 08:00:44;;;;;;;8.18;5.15;;;;;;;;;;5050796;28;20048;-68
2023/07/18 08:03:09;;;;;;;5.37;3.17;;;;;;;;;;5049406;28;20029;-69
2023/07/18 08:05:34;;;;;;;7.32;4.00;;;;;;;;;;5050650;28;20400;-69
2023/07/18 08:08:00;;;;;;;7.90;3.83;;;;;;;;;;5049220;28;20094;-69
2023/07/18 08:10:25;;;;;;;3.83;3.03;;;;;;;;;;5051228;28;20419;-69
2023/07/18 08:12:50;;;;;;;5.83;3.20;;;;;;;;;;5048681;28;20029;-69
2023/07/18 08:15:15;;;;;;;5.75;2.35;;;;;;;;;;5050558;28;20412;-69
2023/07/18 08:17:40;;;;;;;5.00;3.27;;;;;;;;;;5049277;28;20039;-68
2023/07/18 08:20:08;;;;;;;4.67;3.20;;;;;;;;;;5050445;28;20616;-69
2023/07/18 08:22:33;;;;;;;4.60;4.15;;;;;;;;;;5049191;28;20488;-68
2023/07/18 08:24:58;;;;;;;4.95;3.72;;;;;;;;;;5050683;28;20027;-69
2023/07/18 08:27:23;;;;;;;4.10;3.07;;;;;;;;;;5081414;28;20049;-70
2023/07/18 08:29:49;;;;;;;3.85;3.25;;;;;;;;;;5050197;28;20454;-68
2023/07/18 08:32:14;;;;;;;5.60;2.70;;;;;;;;;;5048935;28;20029;-69
2023/07/18 08:34:39;;;;;;;4.18;3.13;;;;;;;;;;5050712;28;20027;-69
2023/07/18 08:37:08;;;;;;;6.17;2.63;;;;;;;;;;5048405;28;20060;-69
2023/07/18 08:39:33;;;;;;;3.22;2.10;;;;;;;;;;5050795;28;20028;-69
2023/07/18 08:41:59;;;;;;;3.10;2.27;;;;;;;;;;5048947;28;20045;-69
2023/07/18 08:44:25;;;;;;;3.40;2.42;;;;;;;;;;5050469;28;20458;-70
2023/07/18 08:46:50;;;;;;;5.50;2.75;;;;;;;;;;5050552;28;20025;-69
2023/07/18 08:49:18;;;;;;;6.37;3.30;;;;;;;;;;5054077;28;20024;-69
2023/07/18 08:51:43;;;;;;;7.47;2.38;;;;;;;;;;5052376;28;20112;-71
2023/07/18 08:54:09;;;;;;;3.03;2.22;;;;;;;;;;5054161;28;20424;-69
2023/07/18 08:56:34;;;;;;;4.13;1.80;;;;;;;;;;5052781;28;20045;-69
2023/07/18 08:59:00;;;;;;;4.63;2.35;;;;;;;;;;5053750;28;20016;-69
2023/07/18 09:01:25;;;;;;;3.95;1.98;;;;;;;;;;5052788;28;20119;-70
2023/07/18 09:03:51;;;;;;;3.33;2.00;;;;;;;;;;5054189;28;20027;-69
2023/07/18 09:06:18;;;;;;;2.35;1.50;;;;;;;;;;5052220;28;20472;-69
2023/07/18 09:08:43;;;;;;;5.90;2.42;;;;;;;;;;5086269;28;20021;-69
2023/07/18 09:11:11;;;;;;;3.28;2.05;;;;;;;;;;5051014;28;20017;-69
2023/07/18 09:13:37;;;;;;;2.28;1.70;;;;;;;;;;5043952;28;20376;-69
2023/07/18 09:16:10;;;;;;;3.80;2.20;;;;;;;;;;5032135;28;20538;-68
2023/07/18 09:18:38;;;;;;;2.13;1.80;;;;;;;;;;5051378;28;20130;-70
2023/07/18 09:21:04;;;;;;;;;;;;;;;;;;5052442;28;20480;-69
2023/07/18 09:23:38;;;;;;;2.47;1.70;;;;;;;;;;5052431;28;19911;-74
2023/07/18 09:26:08;;;;;;;5.32;1.60;;;;;;;;;;5052183;28;20480;-69
2023/07/18 09:28:34;;;;;;;7.57;2.25;;;;;;;;;;5053542;28;20084;-70
2023/07/18 09:30:59;;;;;;;6.53;2.10;;;;;;;;;;5052342;28;20101;-66
2023/07/18 09:33:24;;;;;;;1.37;1.27;;;;;;;;;;5053592;28;20028;-70
2023/07/18 09:35:49;;;;;;;4.10;1.60;;;;;;;;;;5053285;28;20453;-69
2023/07/18 09:38:14;;;;;;;3.43;1.57;;;;;;;;;;5051832;28;20120;-69
2023/07/18 09:40:40;;;;;;;4.63;1.80;;;;;;;;;;5053597;28;21146;-70
2023/07/18 09:43:06;;;;;;;4.28;1.35;;;;;;;;;;5051428;28;20093;-70
2023/07/18 09:45:31;;;;;;;3.67;2.05;;;;;;;;;;5053489;28;20021;-70
2023/07/18 09:47:57;;;;;;;2.38;1.63;;;;;;;;;;5051969;28;20041;-69
2023/07/18 09:50:25;;;;;;;2.30;1.23;;;;;;;;;;5052988;28;20021;-69
2023/07/18 09:52:52;;;;;;;3.92;1.27;;;;;;;;;;5051485;28;20036;-69
2023/07/18 09:55:27;;;;;;;3.10;1.30;;;;;;;;;;5053382;28;20504;-70
2023/07/18 09:57:54;;;;;;;2.00;0.95;;;;;;;;;;5051369;28;20036;-69
2023/07/18 10:00:19;;;;;;;9.73;2.38;;;;;;;;;;5052931;28;20472;-70
2023/07/18 10:02:44;;;;;;;7.65;1.38;;;;;;;;;;5051667;28;20051;-75
2023/07/18 10:05:10;;;;;;;5.53;1.30;;;;;;;;;;5052515;28;20016;-69
2023/07/18 10:07:36;;;;;;;4.93;1.83;;;;;;;;;;5051123;28;20033;-69
2023/07/18 10:10:03;;;;;;;2.40;1.10;;;;;;;;;;5050616;28;20024;-69
2023/07/18 10:12:33;;;;;;;7.00;1.98;;;;;;;;;;5061474;28;20033;-69
2023/07/18 10:15:00;;;;;;;1.95;1.08;;;;;;;;;;5072371;28;20055;-70
2023/07/18 10:17:35;;;;;;;8.50;1.27;;;;;;;;;;5071108;28;20064;-69
2023/07/18 10:20:01;;;;;;;1.88;1.05;;;;;;;;;;5070830;28;20036;-69
2023/07/18 10:22:27;;;;;;;1.77;1.23;;;;;;;;;;5070711;28;20043;-69
2023/07/18 10:24:52;;;;;;;4.57;1.63;;;;;;;;;;5072449;28;20020;-70
2023/07/18 10:27:21;;;;;;;1.90;1.10;;;;;;;;;;5069294;28;20380;-69
2023/07/18 10:30:05;;;;;;;3.08;0.77;;;;;;;;;;5070785;28;20013;-69
2023/07/18 10:32:31;;;;;;;1.33;1.00;;;;;;;;;;5068192;28;20495;-69
2023/07/18 10:34:57;;;;;;;3.35;0.90;;;;;;;;;;5070638;28;20063;-69
2023/07/18 10:37:25;;;;;;;4.55;1.75;;;;;;;;;;5069481;28;20072;-70
2023/07/18 10:39:51;;;;;;;2.70;1.15;;;;;;;;;;5070534;28;20095;-70
2023/07/18 10:42:20;;;;;;;4.00;1.80;;;;;;;;;;5069379;28;20147;-69
2023/07/18 10:44:46;;;;;;;6.20;1.38;;;;;;;;;;5070555;28;20030;-69
2023/07/18 10:47:20;;;;;;;4.25;1.27;;;;;;;;;;5070012;28;20120;-75
2023/07/18 10:49:47;;;;;;;4.22;0.88;;;;;;;;;;5070785;28;20043;-70
2023/07/18 10:52:12;;;;;;;1.58;0.80;;;;;;;;;;5070085;28;20029;-69
2023/07/18 10:54:42;;;;;;;5.57;2.08;;;;;;;;;;5071775;28;20036;-69
2023/07/18 10:57:09;;;;;;;2.83;1.13;;;;;;;;;;5069540;28;20033;-73
2023/07/18 10:59:34;;;;;;;0.85;0.60;;;;;;;;;;5071722;28;20020;-73
2023/07/18 11:02:00;;;;;;;1.47;1.27;;;;;;;;;;5070158;28;20040;-73
2023/07/18 11:04:25;;;;;;;8.93;1.17;;;;;;;;;;5071019;28;20539;-72
2023/07/18 11:06:53;;;;;;;0.97;0.80;;;;;;;;;;5070071;28;20116;-72
2023/07/18 11:09:18;;;;;;;;;;;;;;;;;;5071107;28;20032;-72
2023/07/18 11:11:43;;;;;;;2.40;1.73;;;;;;;;;;5069511;28;19908;-73
2023/07/18 11:14:09;;;;;;;4.37;0.83;;;;;;;;;;5071232;28;20053;-72
2023/07/18 11:16:36;;;;;;;0.73;0.70;;;;;;;;;;5069990;28;20546;-72
2023/07/18 11:19:01;;;;;;;2.10;0.63;;;;;;;;;;5070625;28;20024;-73
2023/07/18 11:21:27;;;;;;;3.30;0.88;;;;;;;;;;5069673;28;20507;-73
2023/07/18 11:23:53;;;;;;;1.45;0.68;;;;;;;;;;5071378;28;20582;-73
2023/07/18 11:26:18;;;;;;;2.42;1.00;;;;;;;;;;5068657;28;20158;-73
2023/07/18 11:28:45;;;;;;;1.27;1.17;;;;;;;;;;5071056;28;20032;-73
2023/07/18 11:31:26;;;;;;;4.43;1.60;;;;;;;;;;5069338;28;20013;-73
2023/07/18 11:33:57;;;;;;;0.70;0.70;;;;;;;;;;5070897;28;20017;-73
2023/07/18 11:36:27;;;;;;;0.90;0.90;;;;;;;;;;5067990;28;20044;-72
2023/07/18 11:38:52;;;;;;;2.30;0.93;;;;;;;;;;5070826;28;20050;-72
2023/07/18 11:41:38;;;;;;;0.60;0.60;;;;;;;;;;5068977;28;20063;-73
2023/07/18 11:44:03;;;;;;;3.40;0.80;;;;;;;;;;5068816;28;20088;-73
2023/07/18 11:46:38;;;;;;;1.05;0.65;;;;;;;;;;5069293;28;20121;-73
2023/07/18 11:49:03;;;;;;;1.23;1.15;;;;;;;;;;5069950;28;20070;-73
2023/07/18 11:51:30;;;;;;;3.03;0.85;;;;;;;;;;5067962;28;20028;-73
2023/07/18 11:53:55;;;;;;;2.10;0.85;;;;;;;;;;5070686;28;20016;-72
2023/07/18 11:56:21;;;;;;;2.53;1.00;;;;;;;;;;5068881;28;20104;-73
2023/07/18 11:58:46;;;;;;;0.55;0.55;;;;;;;;;;5069605;28;20028;-72
2023/07/18 12:01:11;;;;;;;0.95;0.55;;;;;;;;;;5069057;28;20027;-73
2023/07/18 12:03:36;;;;;;;1.70;0.80;;;;;;;;;;5070332;28;20073;-73
2023/07/18 12:06:02;;;;;;;1.65;1.05;;;;;;;;;;5070226;28;20020;-73
2023/07/18 12:08:27;;;;;;;1.40;0.77;;;;;;;;;;5069128;28;20399;-74
2023/07/18 12:10:52;;;;;;;1.27;0.80;;;;;;;;;;5070120;28;20419;-73
2023/07/18 12:13:18;;;;;;;1.58;0.60;;;;;;;;;;5068834;28;20065;-73
2023/07/18 12:15:43;;;;;;;1.25;0.70;;;;;;;;;;5069148;28;20685;-73
2023/07/18 12:18:08;;;;;;;1.27;0.70;;;;;;;;;;5068430;28;20028;-72
2023/07/18 12:20:34;;;;;;;1.50;1.00;;;;;;;;;;5069982;28;20020;-72
2023/07/18 12:22:59;;;;;;;6.03;1.53;;;;;;;;;;5068405;28;20048;-73
2023/07/18 12:25:30;;;;;;;3.13;1.63;;;;;;;;;;5070294;28;20016;-73
2023/07/18 12:27:55;;;;;;;0.57;0.57;;;;;;;;;;5068968;28;20121;-73
2023/07/18 12:30:20;;;;;;;0.67;0.67;;;;;;;;;;5070066;28;20467;-73
2023/07/18 12:32:46;;;;;;;4.50;0.77;;;;;;;;;;5068427;28;20059;-73
2023/07/18 12:35:11;;;;;;;3.15;1.50;;;;;;;;;;5068456;28;20455;-71
2023/07/18 12:37:36;;;;;;;1.25;1.00;;;;;;;;;;5069087;28;20583;-72
2023/07/18 12:40:02;;;;;;;6.07;0.90;;;;;;;;;;5069584;28;20025;-72
2023/07/18 12:42:27;;;;;;;0.82;0.80;;;;;;;;;;5068521;28;20037;-73
2023/07/18 12:44:52;;;;;;;0.93;0.80;;;;;;;;;;5070188;28;20542;-72
2023/07/18 12:47:17;;;;;;;13.57;1.17;;;;;;;;;;5068151;28;21020;-72
2023/07/18 12:49:42;;;;;;;2.03;1.00;;;;;;;;;;5070012;28;20430;-72
2023/07/18 12:52:08;;;;;;;2.35;0.80;;;;;;;;;;5068373;28;20032;-72
2023/07/18 12:54:33;;;;;;;5.28;1.23;;;;;;;;;;5070071;28;20018;-73
2023/07/18 12:56:59;;;;;;;1.30;1.20;;;;;;;;;;5068336;28;20072;-73
2023/07/18 12:59:25;;;;;;;10.35;1.63;;;;;;;;;;5070083;28;20025;-73
2023/07/18 13:01:50;;;;;;;2.92;0.80;;;;;;;;;;5068186;28;20028;-73
2023/07/18 13:04:15;;;;;;;1.75;1.08;;;;;;;;;;5069535;28;20024;-73
2023/07/18 13:06:41;;;;;;;0.90;0.60;;;;;;;;;;5068595;28;20061;-73
2023/07/18 13:09:06;;;;;;;6.93;1.60;;;;;;;;;;5069299;28;20112;-73
2023/07/18 13:11:31;;;;;;;1.30;1.02;;;;;;;;;;5068336;28;20039;-73
2023/07/18 13:13:56;;;;;;;0.87;0.80;;;;;;;;;;5069772;28;20021;-74
2023/07/18 13:16:21;;;;;;;0.90;0.90;;;;;;;;;;5067916;28;20037;-73
2023/07/18 13:18:47;;;;;;;1.48;0.95;;;;;;;;;;5070103;28;20016;-73
2023/07/18 13:21:12;;;;;;;1.27;1.15;;;;;;;;;;5068255;28;20689;-72
2023/07/18 13:23:38;;;;;;;5.20;1.17;;;;;;;;;;5069588;28;20096;-73
2023/07/18 13:26:04;;;;;;;2.00;1.17;;;;;;;;;;5068082;28;20114;-72
2023/07/18 13:28:30;;;;;;;2.30;0.88;;;;;;;;;;5070141;28;20109;-72
2023/07/18 13:30:55;;;;;;;2.35;0.70;;;;;;;;;;5069682;28;20092;-71
2023/07/18 13:33:20;;;;;;;1.27;0.80;;;;;;;;;;5069557;28;20090;-71
2023/07/18 13:35:45;;;;;;;2.50;1.07;;;;;;;;;;5073292;28;20044;-71
2023/07/18 13:38:10;;;;;;;1.27;1.00;;;;;;;;;;5071515;28;20446;-71
2023/07/18 13:40:36;;;;;;;1.35;0.98;;;;;;;;;;5072889;28;20025;-71
2023/07/18 13:43:01;;;;;;;1.40;0.87;;;;;;;;;;5071737;28;20418;-72
2023/07/18 13:45:26;;;;;;;7.90;1.67;;;;;;;;;;5073336;28;20435;-71
2023/07/18 13:47:51;;;;;;;0.70;0.57;;;;;;;;;;5071095;28;20649;-72
2023/07/18 13:50:16;;;;;;;1.23;0.70;;;;;;;;;;5072902;28;20016;-71
2023/07/18 13:52:44;;;;;;;0.70;0.67;;;;;;;;;;5071522;28;20086;-71
2023/07/18 13:55:09;;;;;;;0.80;0.73;;;;;;;;;;5072768;28;20434;-71
2023/07/18 13:57:34;;;;;;;0.37;0.37;;;;;;;;;;5071409;28;20044;-72
2023/07/18 13:59:59;;;;;;;1.75;0.80;;;;;;;;;;5072809;28;20056;-73
2023/07/18 14:02:24;;;;;;;0.90;0.63;;;;;;;;;;5070894;28;20036;-72
2023/07/18 14:04:49;;;;;;;2.70;1.73;;;;;;;;;;5073088;28;20027;-72
2023/07/18 14:07:14;;;;;;;1.00;0.90;;;;;;;;;;5071150;28;20086;-71
2023/07/18 14:09:40;;;;;;;1.77;0.73;;;;;;;;;;5072620;28;20100;-72
2023/07/18 14:12:05;;;;;;;2.70;0.65;;;;;;;;;;5070642;28;20466;-71
2023/07/18 14:14:30;;;;;;;2.93;0.63;;;;;;;;;;5072775;28;20060;-71
2023/07/18 14:16:55;;;;;;;2.35;0.88;;;;;;;;;;5070781;28;20446;-72
2023/07/18 14:19:21;;;;;;;0.73;0.60;;;;;;;;;;5072758;28;20063;-71
2023/07/18 14:21:46;;;;;;;8.17;1.00;;;;;;;;;;5070927;28;20451;-76
2023/07/18 14:24:11;;;;;;;0.87;0.87;;;;;;;;;;5071837;28;20016;-71
2023/07/18 14:26:36;;;;;;;3.30;1.37;;;;;;;;;;5071075;28;20042;-71
2023/07/18 14:29:01;;;;;;;4.38;0.50;;;;;;;;;;5072069;28;20945;-71